Главная страница
METAR-TAF:

METAR-TAF

Аэропорты :

Маради, Нигер

широта: 13-28N, долгота: 007-05E, высота над уровнем моря: 372 м

Текущие метеонаблюдения

Эта сводка был подготовлена 35 минут назад, в 11:00 UTC
Ветер 12 Узел от восточный
Температура 30°C
Влажность 13%
Давление 1015 hPa
Видимость: 9000 м
в окрестностях, , пыль, взвешенная над обширной территорией

METAR: DRRM 111100Z 09012KT 9000 VCBLDU NSC 30/M01 Q1015

Время: 12:35 (11:35 UTC)


TAF: отсутствует

Метеонаблюдения и прогнозы для более 4000 аэропортов (сводки METAR и TAF).

Имеющиеся станции представлены на карте желтыми и красными точками.

Чтобы увидеть название станции, наведите на нее мышь.

Затем щелкните, чтобы увидеть метеонаблюдения и метеопрогнозы.

Управление картой: чтобы увеличить масштаб, щелкните зеленые кнопки с черным крестиком; чтобы уменьшить масштаб, щелкните зеленую кнопку с тире; для просмотра соседних карт щелкайте зеленые стрелки.


METAR-TAF: